Admire, Kansas
Current Conditions -  °F | °C
As of 5:11 AM on Monday 22 Dec 2014 (Local Time) from KEMP Reporting Station
Haze Haze  
Wind Chill: 36°   Ceiling: 200
Heat Index: 42°   Visibility: 2mi
Dew Point: 42°   Wind: 12mph
Humidity: 100%   Direction: 160°SSE
Pressure: 29.57"   Gusts: NA
Location:  38.64°N, 96.1°W
Report Text: KEMP 221111Z AUTO 16010KT 2SM BR OVC002 06/06 A2957 RMK AO2 T00560056
Loading
Personal Weather Stations






























Interactive Weather Map New forecast layout! Learn more

10-Day Weather Forecast

Advertisements
Track Severe Weather on mobile